Pagina principale
METAR-TAF:

METAR-TAF

Aeroporti :

Wonderboom Airport

Pretoria, Sudafrica

latitudine: 25-39S, longitudine: 028-13E, altezza: 1248 m

Osservazione

Il bollettino è stato emesso 17 ore e 14 minuti fa, alle 10:00 UTC
Vento 10 kt da est/sud-est
Temperature 25°C
Umidità 65%
Pressione 1020 hPa
Visibilità 10 km o più
Nubi sparse ad un'altezza di 2500 ft
Cielo coperto ad un'altezza di 4000 ft

METAR: FAWB 231000Z 12010KT 9999 SCT025 OVC040 25/18 Q1020

Ora: 05:14 (03:14 UTC)

Previsione

Il bollettino è stato emesso 18 ore e 14 minuti fa, alle 09:00 UTC
Previsione valida dal 23 alle 10 UTC al 23 alle 18 UTC
Vento 15 kt da est/sud-est
Visibilità 10 km o più
Nuvoloso ad un'altezza di 3000 ft
Probabilità 30% :
Temporaneamente
dal 23 alle 11 UTC al 23 alle 14 UTC
Poco nuvoloso ad un'altezza di 3500 ft, Cumulonembo.
temporale, pioggia debole

TAF: FAWB 230900Z 2310/2318 12015KT 9999 BKN030 TX27/2312Z TN20/2318Z PROB30 TEMPO 2311/2314 -TSRA FEW035CB

Osservazioni e previsioni meteorologiche di più di 4000 aeroporti (messaggi METAR e TAF).

Le stazioni disponibili sono rappresentate dai dischi gialli e rossi sulla carta.

Puntare il mouse per vedere il nome della stazione.

Clicca sopra per visualizzare le osservazioni e previsioni meteorologiche.

Per cambiare la mappa : fare clic sui pulsanti verdi con una croce nera per ingrandire, il pulsante verde con un trattino per diminuire, o sulla freccia verde per le mappe adiacenti.


METAR-TAF: